Time;durP1;ratioP1;P1;durP2;ratioP2;P2;SDS_P1;SDS_P2;PMS_P1;PMS_P2;Temp;Humidity;BMP_temperature;BMP_pressure;BME280_temperature;BME280_humidity;BME280_pressure;Samples;Min_cycle;Max_cycle;Signal;HPM_P1;HPM_P2
2024/03/11 00:03:30;;;;;;;13.93;9.57;;;;;;;;;;13107800;22;20077;-74
2024/03/11 00:08:34;;;;;;;11.95;8.57;;;;;;;;;;13108198;22;20090;-74
2024/03/11 00:13:37;;;;;;;11.45;8.13;;;;;;;;;;13102871;22;20466;-74
2024/03/11 00:18:42;;;;;;;14.25;9.32;;;;;;;;;;13100799;22;20090;-74
2024/03/11 00:23:45;;;;;;;12.57;8.63;;;;;;;;;;13074061;22;20500;-74
2024/03/11 00:28:48;;;;;;;12.55;8.52;;;;;;;;;;13105861;22;20074;-74
2024/03/11 00:33:53;;;;;;;9.55;7.85;;;;;;;;;;13106237;22;20059;-74
2024/03/11 00:38:57;;;;;;;11.85;7.47;;;;;;;;;;13106319;22;20466;-74
2024/03/11 00:44:00;;;;;;;8.45;5.80;;;;;;;;;;13106159;22;20027;-74
2024/03/11 00:49:06;;;;;;;5.72;4.15;;;;;;;;;;13105312;22;20126;-74
2024/03/11 00:54:10;;;;;;;;;;;;;;;;;;13105811;22;20033;-74
2024/03/11 00:59:14;;;;;;;4.05;3.05;;;;;;;;;;13073003;22;19914;-74
2024/03/11 01:04:21;;;;;;;3.22;2.60;;;;;;;;;;13100531;22;20039;-74
2024/03/11 01:09:25;;;;;;;3.55;2.55;;;;;;;;;;13100988;22;20042;-74
2024/03/11 01:14:28;;;;;;;2.45;1.77;;;;;;;;;;13073160;22;20509;-74
2024/03/11 01:19:32;;;;;;;2.35;2.00;;;;;;;;;;13101945;22;20030;-74
2024/03/11 01:24:36;;;;;;;1.25;1.15;;;;;;;;;;13101133;22;20094;-74
2024/03/11 01:29:39;;;;;;;1.33;1.23;;;;;;;;;;13101601;22;20460;-74
2024/03/11 01:34:44;;;;;;;1.70;1.33;;;;;;;;;;13072963;22;20098;-74
2024/03/11 01:39:51;;;;;;;2.00;1.42;;;;;;;;;;13101974;22;20097;-74
2024/03/11 01:44:54;;;;;;;;;;;;;;;;;;13106923;22;20632;-75
2024/03/11 01:50:00;;;;;;;1.10;1.00;;;;;;;;;;13124811;22;19953;-75
2024/03/11 01:55:05;;;;;;;1.35;1.00;;;;;;;;;;13101376;22;20042;-74
2024/03/11 02:00:09;;;;;;;1.70;0.80;;;;;;;;;;13072778;22;20397;-74
2024/03/11 02:05:14;;;;;;;1.35;1.25;;;;;;;;;;13120671;22;20049;-74
2024/03/11 02:10:19;;;;;;;2.17;1.80;;;;;;;;;;13097618;22;20026;-74
2024/03/11 02:15:23;;;;;;;3.40;2.70;;;;;;;;;;13097827;22;20038;-75
2024/03/11 02:20:28;;;;;;;6.90;5.10;;;;;;;;;;13072459;22;20091;-74
2024/03/11 02:25:35;;;;;;;5.72;4.45;;;;;;;;;;13101228;22;20114;-74
2024/03/11 02:30:38;;;;;;;5.97;4.43;;;;;;;;;;13117810;22;20026;-74
2024/03/11 02:35:42;;;;;;;5.43;4.40;;;;;;;;;;13118769;22;20027;-74
2024/03/11 02:40:47;;;;;;;5.93;4.72;;;;;;;;;;13072296;22;20084;-74
2024/03/11 02:45:50;;;;;;;4.88;3.97;;;;;;;;;;13117470;22;20105;-74
2024/03/11 02:50:54;;;;;;;3.30;2.70;;;;;;;;;;13065681;22;20461;-74
2024/03/11 02:56:02;;;;;;;4.43;2.78;;;;;;;;;;13116155;22;20027;-74
2024/03/11 03:01:06;;;;;;;2.28;1.83;;;;;;;;;;13114429;22;20387;-74
2024/03/11 03:06:09;;;;;;;1.45;1.33;;;;;;;;;;13073920;22;20030;-72
2024/03/11 03:11:16;;;;;;;1.35;1.13;;;;;;;;;;13102947;22;20550;-72
2024/03/11 03:16:21;;;;;;;0.73;0.73;;;;;;;;;;13118984;22;20037;-72
2024/03/11 03:21:24;;;;;;;0.57;0.50;;;;;;;;;;13117484;22;20019;-72
2024/03/11 03:26:29;;;;;;;0.55;0.40;;;;;;;;;;13075365;22;20073;-73
2024/03/11 03:31:33;;;;;;;0.38;0.38;;;;;;;;;;13115747;22;20750;-72
2024/03/11 03:36:36;;;;;;;0.30;0.30;;;;;;;;;;13117657;22;20057;-72
2024/03/11 03:41:41;;;;;;;0.40;0.40;;;;;;;;;;13101811;22;20410;-72
2024/03/11 03:46:44;;;;;;;0.30;0.30;;;;;;;;;;13115910;22;20431;-72
2024/03/11 03:51:47;;;;;;;0.40;0.38;;;;;;;;;;13115809;22;20053;-72
2024/03/11 03:56:54;;;;;;;0.60;0.40;;;;;;;;;;13115972;22;20101;-72
2024/03/11 04:01:57;;;;;;;0.30;0.30;;;;;;;;;;13114908;22;20131;-73
2024/03/11 04:07:01;;;;;;;0.40;0.38;;;;;;;;;;13115954;22;20027;-73
2024/03/11 04:12:06;;;;;;;0.52;0.43;;;;;;;;;;13073850;22;20046;-72
2024/03/11 04:17:12;;;;;;;0.55;0.40;;;;;;;;;;13113243;22;20029;-72
2024/03/11 04:22:16;;;;;;;0.40;0.30;;;;;;;;;;13074199;22;20050;-72
2024/03/11 04:27:22;;;;;;;0.20;0.20;;;;;;;;;;13102429;22;20121;-73
2024/03/11 04:32:25;;;;;;;0.37;0.27;;;;;;;;;;13111665;22;20146;-72
2024/03/11 04:37:29;;;;;;;0.32;0.32;;;;;;;;;;13102175;22;20027;-73
2024/03/11 04:42:34;;;;;;;0.30;0.30;;;;;;;;;;13101067;22;20316;-72
2024/03/11 04:47:37;;;;;;;0.75;0.40;;;;;;;;;;13073149;22;20366;-73
2024/03/11 04:52:41;;;;;;;0.38;0.30;;;;;;;;;;13110931;22;20026;-72
2024/03/11 04:57:47;;;;;;;0.20;0.20;;;;;;;;;;13101026;22;20022;-73
2024/03/11 05:02:50;;;;;;;0.30;0.30;;;;;;;;;;13109497;22;20515;-72
2024/03/11 05:07:54;;;;;;;0.20;0.20;;;;;;;;;;13073934;22;20022;-72
2024/03/11 05:12:59;;;;;;;0.30;0.30;;;;;;;;;;13100816;22;20030;-72
2024/03/11 05:18:02;;;;;;;0.20;0.20;;;;;;;;;;13071722;22;20468;-72
2024/03/11 05:23:06;;;;;;;0.90;0.30;;;;;;;;;;13072785;22;20026;-72
2024/03/11 05:28:11;;;;;;;0.73;0.30;;;;;;;;;;13073782;22;20027;-72
2024/03/11 05:33:15;;;;;;;0.20;0.20;;;;;;;;;;13072857;22;20023;-72
2024/03/11 05:38:18;;;;;;;0.40;0.38;;;;;;;;;;13105733;22;20029;-72
2024/03/11 05:43:23;;;;;;;0.20;0.20;;;;;;;;;;13099825;22;20030;-72
2024/03/11 05:48:26;;;;;;;0.30;0.30;;;;;;;;;;13100379;22;20026;-72
2024/03/11 05:53:30;;;;;;;0.30;0.30;;;;;;;;;;13094339;22;20101;-72
2024/03/11 05:58:35;;;;;;;0.30;0.30;;;;;;;;;;13069343;22;20407;-72
2024/03/11 06:03:38;;;;;;;0.38;0.38;;;;;;;;;;13104059;22;20026;-72
2024/03/11 06:08:43;;;;;;;0.80;0.40;;;;;;;;;;13103268;22;20101;-72
2024/03/11 06:13:48;;;;;;;0.25;0.25;;;;;;;;;;13102751;22;20027;-72
2024/03/11 06:18:51;;;;;;;0.40;0.40;;;;;;;;;;13099476;22;20027;-72
2024/03/11 06:23:57;;;;;;;0.52;0.52;;;;;;;;;;13101481;22;20039;-72
2024/03/11 06:29:02;;;;;;;0.43;0.43;;;;;;;;;;13100415;22;20098;-72
2024/03/11 06:34:06;;;;;;;0.98;0.50;;;;;;;;;;13066759;22;20026;-72
2024/03/11 06:39:10;;;;;;;0.57;0.30;;;;;;;;;;13096295;22;20019;-73
2024/03/11 06:44:16;;;;;;;1.45;0.40;;;;;;;;;;13103144;22;20018;-72
2024/03/11 06:49:20;;;;;;;;;;;;;;;;;;13102685;22;20054;-72
2024/03/11 06:54:23;;;;;;;0.50;0.50;;;;;;;;;;13100048;22;19918;-72
2024/03/11 06:59:29;;;;;;;0.40;0.40;;;;;;;;;;13101218;22;20097;-72
2024/03/11 07:04:32;;;;;;;0.70;0.57;;;;;;;;;;13101001;22;20027;-72
2024/03/11 07:09:35;;;;;;;0.63;0.60;;;;;;;;;;13098383;22;20023;-72
2024/03/11 07:14:40;;;;;;;0.50;0.50;;;;;;;;;;13100315;22;20047;-72
2024/03/11 07:19:43;;;;;;;0.60;0.40;;;;;;;;;;13100392;22;20026;-72
2024/03/11 07:24:47;;;;;;;0.60;0.60;;;;;;;;;;13100701;22;20026;-72
2024/03/11 07:29:52;;;;;;;1.02;0.60;;;;;;;;;;13100137;22;20027;-72
2024/03/11 07:34:57;;;;;;;0.68;0.68;;;;;;;;;;13098673;22;20061;-72
2024/03/11 07:40:01;;;;;;;1.85;0.70;;;;;;;;;;13100569;22;20080;-73
2024/03/11 07:45:10;;;;;;;0.80;0.80;;;;;;;;;;13099433;22;20057;-72
2024/03/11 07:50:14;;;;;;;0.80;0.80;;;;;;;;;;13118574;22;20019;-72
2024/03/11 07:55:18;;;;;;;1.50;1.20;;;;;;;;;;13072142;22;20050;-72
2024/03/11 08:00:29;;;;;;;1.63;1.00;;;;;;;;;;13099697;22;20473;-72
2024/03/11 08:05:34;;;;;;;1.08;1.00;;;;;;;;;;13118110;22;20041;-72
2024/03/11 08:10:37;;;;;;;2.17;1.35;;;;;;;;;;13118128;22;20044;-73
2024/03/11 08:15:44;;;;;;;1.58;1.33;;;;;;;;;;13072361;22;20365;-73
2024/03/11 08:20:48;;;;;;;1.65;1.40;;;;;;;;;;13115856;22;20525;-73
2024/03/11 08:25:51;;;;;;;2.17;1.60;;;;;;;;;;13116677;22;20707;-73
2024/03/11 08:30:56;;;;;;;2.10;1.67;;;;;;;;;;13115377;22;20049;-73
2024/03/11 08:35:59;;;;;;;3.47;2.28;;;;;;;;;;13070414;22;20064;-73
2024/03/11 08:41:05;;;;;;;1.88;1.67;;;;;;;;;;13115067;22;20019;-73
2024/03/11 08:46:11;;;;;;;2.05;1.75;;;;;;;;;;13114982;22;20027;-73
2024/03/11 08:51:15;;;;;;;2.00;1.58;;;;;;;;;;13114555;22;20649;-73
2024/03/11 08:56:19;;;;;;;1.42;1.33;;;;;;;;;;13099500;22;20027;-73
2024/03/11 09:01:23;;;;;;;1.35;1.25;;;;;;;;;;13127964;22;20026;-73
2024/03/11 09:06:27;;;;;;;1.95;1.48;;;;;;;;;;13120603;22;20023;-73
2024/03/11 09:11:31;;;;;;;1.45;1.35;;;;;;;;;;13101408;22;20027;-73
2024/03/11 09:16:36;;;;;;;1.75;1.55;;;;;;;;;;13098457;22;20073;-73
2024/03/11 09:21:39;;;;;;;2.45;1.85;;;;;;;;;;13114048;22;20042;-73
2024/03/11 09:26:42;;;;;;;2.33;2.03;;;;;;;;;;13112636;22;20022;-73
2024/03/11 09:31:47;;;;;;;2.40;1.85;;;;;;;;;;13111260;22;20117;-73
2024/03/11 09:36:50;;;;;;;4.38;2.50;;;;;;;;;;13111487;22;20058;-73
2024/03/11 09:41:57;;;;;;;3.15;2.65;;;;;;;;;;13110488;22;20023;-73
2024/03/11 09:47:02;;;;;;;5.85;2.90;;;;;;;;;;13110735;22;20388;-73
2024/03/11 09:52:06;;;;;;;2.05;1.85;;;;;;;;;;13105945;22;20686;-73
2024/03/11 09:57:10;;;;;;;2.10;1.83;;;;;;;;;;13095404;22;20106;-73
2024/03/11 10:02:16;;;;;;;1.60;1.50;;;;;;;;;;13097578;22;20022;-73
2024/03/11 10:07:22;;;;;;;1.83;1.55;;;;;;;;;;13109183;22;20031;-74
2024/03/11 10:12:31;;;;;;;1.80;1.67;;;;;;;;;;13097566;22;20045;-73
2024/03/11 10:17:36;;;;;;;3.20;2.38;;;;;;;;;;13103101;22;20018;-73
2024/03/11 10:22:47;;;;;;;3.85;2.83;;;;;;;;;;13105797;22;20446;-73
2024/03/11 10:27:50;;;;;;;9.18;6.80;;;;;;;;;;13095980;22;20018;-73
2024/03/11 10:32:56;;;;;;;5.47;4.63;;;;;;;;;;13104141;22;20019;-73
2024/03/11 10:38:10;;;;;;;5.43;3.83;;;;;;;;;;13104821;22;20022;-73
2024/03/11 10:43:20;;;;;;;4.60;3.53;;;;;;;;;;13103684;22;20023;-73
2024/03/11 10:48:29;;;;;;;5.20;3.88;;;;;;;;;;13096424;22;20026;-73
2024/03/11 10:53:32;;;;;;;4.78;3.90;;;;;;;;;;13096675;22;20026;-73
2024/03/11 10:58:38;;;;;;;6.88;5.63;;;;;;;;;;13101777;22;20405;-73
2024/03/11 11:03:46;;;;;;;8.75;6.00;;;;;;;;;;13101901;22;20045;-73
2024/03/11 11:08:50;;;;;;;7.97;5.25;;;;;;;;;;13097227;22;20462;-73
2024/03/11 11:13:55;;;;;;;11.93;7.75;;;;;;;;;;13100423;22;20545;-73
2024/03/11 11:19:00;;;;;;;10.23;6.60;;;;;;;;;;13100568;22;20110;-73
2024/03/11 11:24:29;;;;;;;7.22;5.68;;;;;;;;;;13068744;22;20249;-73
2024/03/11 11:29:34;;;;;;;9.68;6.72;;;;;;;;;;13098423;22;20027;-73
2024/03/11 11:34:53;;;;;;;9.15;6.43;;;;;;;;;;13099838;22;20042;-73
2024/03/11 11:39:57;;;;;;;8.38;5.80;;;;;;;;;;13097348;22;20023;-73
2024/03/11 11:45:00;;;;;;;10.60;6.63;;;;;;;;;;13096631;22;20342;-73
2024/03/11 11:50:31;;;;;;;5.43;4.20;;;;;;;;;;13070874;22;20668;-73
2024/03/11 11:55:35;;;;;;;6.40;4.40;;;;;;;;;;13117436;22;20058;-73
2024/03/11 12:00:41;;;;;;;7.50;5.72;;;;;;;;;;13117484;22;20097;-73
2024/03/11 12:06:00;;;;;;;5.55;4.03;;;;;;;;;;13071447;22;20019;-73
2024/03/11 12:11:11;;;;;;;8.23;5.88;;;;;;;;;;13115426;22;20027;-73
2024/03/11 12:16:23;;;;;;;6.68;4.43;;;;;;;;;;13099848;22;20034;-73
2024/03/11 12:21:29;;;;;;;7.25;5.05;;;;;;;;;;13098434;22;20030;-73
2024/03/11 12:26:34;;;;;;;5.53;4.05;;;;;;;;;;13097635;22;20052;-73
2024/03/11 12:31:38;;;;;;;6.18;4.45;;;;;;;;;;13110874;22;20039;-73
2024/03/11 12:36:46;;;;;;;5.45;4.10;;;;;;;;;;13100866;22;20018;-73
2024/03/11 12:41:49;;;;;;;4.90;3.72;;;;;;;;;;13117925;22;20033;-73
2024/03/11 12:46:54;;;;;;;6.40;4.80;;;;;;;;;;13114880;22;20473;-73
2024/03/11 12:52:08;;;;;;;6.88;4.85;;;;;;;;;;13112302;22;20408;-73
2024/03/11 12:57:14;;;;;;;8.30;4.90;;;;;;;;;;13111893;22;20023;-73
2024/03/11 13:02:18;;;;;;;5.93;4.22;;;;;;;;;;13109403;22;20075;-73
2024/03/11 13:07:25;;;;;;;4.68;3.30;;;;;;;;;;13110059;22;20023;-73
2024/03/11 13:12:28;;;;;;;3.75;3.15;;;;;;;;;;13107986;22;20019;-73
2024/03/11 13:17:33;;;;;;;4.38;3.30;;;;;;;;;;13108561;22;20027;-73
2024/03/11 13:22:37;;;;;;;3.72;2.83;;;;;;;;;;13108180;22;20019;-73
2024/03/11 13:27:41;;;;;;;5.03;2.92;;;;;;;;;;13107810;22;20053;-73
2024/03/11 13:32:44;;;;;;;2.72;2.10;;;;;;;;;;13096450;22;20057;-73
2024/03/11 13:37:49;;;;;;;2.50;2.10;;;;;;;;;;13105553;22;20101;-73
2024/03/11 13:42:52;;;;;;;4.60;2.67;;;;;;;;;;13097689;22;20018;-73
2024/03/11 13:47:56;;;;;;;4.55;2.85;;;;;;;;;;13103735;22;20531;-73
2024/03/11 13:53:03;;;;;;;4.37;2.83;;;;;;;;;;13105538;22;20401;-73
2024/03/11 13:58:07;;;;;;;6.80;3.70;;;;;;;;;;13105768;22;20156;-73
2024/03/11 14:03:10;;;;;;;8.98;4.78;;;;;;;;;;13094991;22;20015;-73
2024/03/11 14:08:17;;;;;;;4.80;2.70;;;;;;;;;;13104735;22;20023;-73
2024/03/11 14:13:21;;;;;;;4.53;2.70;;;;;;;;;;13068974;22;20019;-73
2024/03/11 14:18:24;;;;;;;3.00;1.92;;;;;;;;;;13097794;22;20050;-73
2024/03/11 14:23:29;;;;;;;2.58;1.90;;;;;;;;;;13097873;22;20076;-73
2024/03/11 14:28:33;;;;;;;2.03;1.50;;;;;;;;;;13102539;22;20097;-73
2024/03/11 14:33:37;;;;;;;2.65;1.70;;;;;;;;;;13102741;22;20026;-73
2024/03/11 14:38:43;;;;;;;3.45;2.08;;;;;;;;;;13102141;22;20026;-73
2024/03/11 14:43:50;;;;;;;1.77;1.33;;;;;;;;;;13101501;22;20106;-73
2024/03/11 14:48:54;;;;;;;2.00;1.20;;;;;;;;;;13096486;22;20023;-73
2024/03/11 14:53:59;;;;;;;1.95;1.50;;;;;;;;;;13099374;22;20465;-73
2024/03/11 14:59:03;;;;;;;4.20;1.48;;;;;;;;;;13099784;22;20046;-73
2024/03/11 15:04:08;;;;;;;3.20;1.85;;;;;;;;;;13103817;22;20019;-73
2024/03/11 15:09:18;;;;;;;2.03;1.45;;;;;;;;;;13101225;22;20019;-73
2024/03/11 15:14:21;;;;;;;1.80;1.00;;;;;;;;;;13100223;22;20023;-74
2024/03/11 15:19:25;;;;;;;1.75;0.93;;;;;;;;;;13100078;22;20023;-74
2024/03/11 15:24:30;;;;;;;2.05;1.10;;;;;;;;;;13071411;22;20487;-74
2024/03/11 15:29:34;;;;;;;1.67;1.10;;;;;;;;;;13098198;22;20023;-74
2024/03/11 15:34:41;;;;;;;1.38;0.80;;;;;;;;;;13100277;22;20015;-74
2024/03/11 15:39:47;;;;;;;1.67;1.13;;;;;;;;;;13071169;22;20033;-74
2024/03/11 15:44:51;;;;;;;1.55;1.20;;;;;;;;;;13101649;22;20543;-74
2024/03/11 15:49:56;;;;;;;1.98;1.20;;;;;;;;;;13102474;22;20046;-74
2024/03/11 15:55:01;;;;;;;1.88;1.15;;;;;;;;;;13124888;22;20324;-76
2024/03/11 16:00:07;;;;;;;1.90;1.50;;;;;;;;;;13104485;22;20037;-74
2024/03/11 16:05:15;;;;;;;1.25;0.93;;;;;;;;;;13105829;22;20014;-74
2024/03/11 16:10:21;;;;;;;1.42;1.10;;;;;;;;;;13123736;22;20046;-74
2024/03/11 16:15:27;;;;;;;2.97;1.60;;;;;;;;;;13122489;22;20084;-74
2024/03/11 16:20:32;;;;;;;3.20;1.90;;;;;;;;;;13128926;22;20454;-74
2024/03/11 16:25:37;;;;;;;4.00;1.65;;;;;;;;;;13127172;22;20023;-74
2024/03/11 16:30:40;;;;;;;4.68;1.58;;;;;;;;;;13124744;22;20073;-74
2024/03/11 16:35:44;;;;;;;2.55;1.35;;;;;;;;;;13103796;22;20027;-74
2024/03/11 16:40:50;;;;;;;1.85;0.93;;;;;;;;;;13120126;22;20564;-74
2024/03/11 16:45:53;;;;;;;1.65;0.93;;;;;;;;;;13104086;22;20462;-74
2024/03/11 16:50:57;;;;;;;2.28;1.27;;;;;;;;;;13113192;22;20019;-74
2024/03/11 16:56:04;;;;;;;2.55;1.15;;;;;;;;;;13118889;22;20409;-74
2024/03/11 17:01:08;;;;;;;1.98;1.17;;;;;;;;;;13100895;22;20014;-74
2024/03/11 17:06:14;;;;;;;2.92;1.05;;;;;;;;;;13115416;22;20019;-74
2024/03/11 17:11:18;;;;;;;1.05;0.95;;;;;;;;;;13112423;22;20022;-74
2024/03/11 17:16:25;;;;;;;1.13;0.80;;;;;;;;;;13100296;22;20080;-74
2024/03/11 17:21:31;;;;;;;1.05;0.73;;;;;;;;;;13095187;22;20027;-74
2024/03/11 17:26:36;;;;;;;;;;;;;;;;;;13112575;22;20072;-74
2024/03/11 17:31:40;;;;;;;1.77;0.68;;;;;;;;;;13111678;22;19922;-74
2024/03/11 17:36:43;;;;;;;1.42;0.60;;;;;;;;;;13097281;22;20050;-74
2024/03/11 17:41:49;;;;;;;0.60;0.50;;;;;;;;;;13098448;22;20034;-74
2024/03/11 17:46:52;;;;;;;3.53;1.40;;;;;;;;;;13111694;22;20593;-74
2024/03/11 17:51:56;;;;;;;3.50;1.85;;;;;;;;;;13109697;22;20339;-74
2024/03/11 17:57:00;;;;;;;8.48;3.95;;;;;;;;;;13071364;22;20105;-74
2024/03/11 18:02:05;;;;;;;5.80;3.63;;;;;;;;;;13097477;22;20022;-74
2024/03/11 18:07:09;;;;;;;9.65;5.47;;;;;;;;;;13106594;22;20076;-74
2024/03/11 18:12:15;;;;;;;10.63;5.32;;;;;;;;;;13107834;22;20381;-74
2024/03/11 18:17:20;;;;;;;8.17;4.00;;;;;;;;;;13107859;22;20033;-74
2024/03/11 18:22:23;;;;;;;6.80;3.45;;;;;;;;;;13109040;22;20030;-74
2024/03/11 18:27:29;;;;;;;5.90;3.08;;;;;;;;;;13107424;22;20088;-74
2024/03/11 18:32:33;;;;;;;5.35;3.30;;;;;;;;;;13069792;22;20030;-74
2024/03/11 18:37:56;;;;;;;4.53;2.50;;;;;;;;;;13101341;22;20023;-74
2024/03/11 18:43:30;;;;;;;6.05;2.90;;;;;;;;;;13107553;22;20025;-74
2024/03/11 18:48:33;;;;;;;9.65;5.00;;;;;;;;;;13102493;22;20026;-74
2024/03/11 18:53:36;;;;;;;19.98;10.35;;;;;;;;;;13106800;22;20026;-74
2024/03/11 18:58:44;;;;;;;20.35;11.10;;;;;;;;;;13103451;22;20026;-74
2024/03/11 19:03:48;;;;;;;21.20;11.88;;;;;;;;;;13105667;22;20022;-74
2024/03/11 19:08:53;;;;;;;17.45;9.50;;;;;;;;;;13106165;22;20714;-74
2024/03/11 19:14:02;;;;;;;11.53;7.13;;;;;;;;;;13105801;22;20547;-74
2024/03/11 19:19:06;;;;;;;12.82;6.72;;;;;;;;;;13105011;22;20264;-74
2024/03/11 19:24:11;;;;;;;10.25;6.00;;;;;;;;;;13105451;22;20137;-74
2024/03/11 19:29:18;;;;;;;8.30;4.95;;;;;;;;;;13104269;22;20363;-74
2024/03/11 19:34:21;;;;;;;9.18;5.10;;;;;;;;;;13102592;22;20023;-74
2024/03/11 19:39:52;;;;;;;8.20;4.53;;;;;;;;;;13100543;22;20551;-74
2024/03/11 19:45:44;;;;;;;5.95;3.30;;;;;;;;;;13100617;22;20022;-74
2024/03/11 19:51:22;;;;;;;2.85;2.30;;;;;;;;;;13118018;22;20030;-75
2024/03/11 19:57:10;;;;;;;2.75;1.80;;;;;;;;;;13116590;22;20026;-74
2024/03/11 20:03:01;;;;;;;2.90;2.00;;;;;;;;;;13100120;22;20030;-74
2024/03/11 20:08:36;;;;;;;2.08;1.27;;;;;;;;;;12776933;23;20428;-74
2024/03/11 20:14:16;;;;;;;3.42;1.70;;;;;;;;;;13077071;22;20018;-74
2024/03/11 20:19:53;;;;;;;4.05;1.83;;;;;;;;;;13092374;22;20018;-74
2024/03/11 20:25:49;;;;;;;2.67;1.73;;;;;;;;;;13100684;22;20057;-74
2024/03/11 20:30:58;;;;;;;1.63;1.35;;;;;;;;;;13117328;22;20575;-74
2024/03/11 20:36:04;;;;;;;3.00;1.52;;;;;;;;;;13117020;22;20023;-74
2024/03/11 20:41:10;;;;;;;1.67;1.20;;;;;;;;;;13115472;22;20023;-74
2024/03/11 20:46:14;;;;;;;1.35;1.10;;;;;;;;;;13115712;22;20018;-74
2024/03/11 20:51:19;;;;;;;1.02;0.90;;;;;;;;;;13099451;22;20026;-74
2024/03/11 20:56:23;;;;;;;2.53;1.10;;;;;;;;;;13114962;22;20033;-74
2024/03/11 21:01:28;;;;;;;1.27;1.00;;;;;;;;;;13113927;22;20031;-74
2024/03/11 21:06:33;;;;;;;1.98;1.20;;;;;;;;;;13100049;22;20353;-74
2024/03/11 21:11:37;;;;;;;2.10;1.30;;;;;;;;;;13071467;22;20034;-74
2024/03/11 21:16:41;;;;;;;1.50;1.30;;;;;;;;;;13113061;22;20075;-74
2024/03/11 21:22:16;;;;;;;1.30;1.10;;;;;;;;;;13113064;22;20023;-74
2024/03/11 21:27:27;;;;;;;1.15;1.00;;;;;;;;;;13073490;22;20198;-74
2024/03/11 21:32:34;;;;;;;1.77;1.25;;;;;;;;;;13072334;22;20022;-74
2024/03/11 21:37:39;;;;;;;1.92;1.08;;;;;;;;;;13101887;22;20342;-74
2024/03/11 21:42:44;;;;;;;1.50;1.10;;;;;;;;;;13109507;22;20034;-74
2024/03/11 21:47:47;;;;;;;1.58;1.20;;;;;;;;;;13100767;22;20458;-74
2024/03/11 21:52:52;;;;;;;2.70;1.20;;;;;;;;;;13108390;22;20457;-74
2024/03/11 21:57:55;;;;;;;2.05;1.00;;;;;;;;;;13108573;22;20472;-74
2024/03/11 22:02:59;;;;;;;1.67;0.98;;;;;;;;;;13108469;22;20030;-74
2024/03/11 22:08:04;;;;;;;1.52;0.90;;;;;;;;;;13108231;22;20019;-74
2024/03/11 22:13:08;;;;;;;0.98;0.80;;;;;;;;;;13107847;22;20023;-74
2024/03/11 22:18:11;;;;;;;1.15;0.93;;;;;;;;;;13099701;22;20114;-74
2024/03/11 22:23:16;;;;;;;2.10;1.05;;;;;;;;;;13106050;22;20029;-74
2024/03/11 22:28:20;;;;;;;2.10;1.52;;;;;;;;;;13106707;22;20030;-74
2024/03/11 22:33:24;;;;;;;1.48;1.38;;;;;;;;;;13071125;22;20023;-74
2024/03/11 22:38:29;;;;;;;1.45;1.10;;;;;;;;;;13072627;22;20068;-74
2024/03/11 22:43:33;;;;;;;1.08;0.98;;;;;;;;;;13104569;22;20023;-74
2024/03/11 22:48:37;;;;;;;2.53;1.20;;;;;;;;;;13104611;22;20027;-74
2024/03/11 22:53:42;;;;;;;2.08;1.02;;;;;;;;;;13105212;22;20033;-74
2024/03/11 22:58:46;;;;;;;1.08;0.95;;;;;;;;;;13099581;22;20041;-74
2024/03/11 23:03:50;;;;;;;1.38;0.95;;;;;;;;;;13103891;22;20023;-74
2024/03/11 23:08:56;;;;;;;1.10;1.00;;;;;;;;;;13103612;22;20029;-74
2024/03/11 23:13:59;;;;;;;2.63;1.48;;;;;;;;;;13103538;22;20026;-74
2024/03/11 23:19:04;;;;;;;2.05;1.30;;;;;;;;;;13099957;22;20446;-75
2024/03/11 23:24:10;;;;;;;2.38;1.30;;;;;;;;;;13104568;22;20027;-75
2024/03/11 23:29:13;;;;;;;;;;;;;;;;;;13104220;22;20023;-75
2024/03/11 23:34:17;;;;;;;1.15;1.00;;;;;;;;;;13101814;22;19930;-75
2024/03/11 23:39:22;;;;;;;1.98;1.10;;;;;;;;;;13103415;22;20078;-75
2024/03/11 23:44:25;;;;;;;1.67;1.17;;;;;;;;;;13103314;22;20031;-75
2024/03/11 23:49:29;;;;;;;1.42;1.20;;;;;;;;;;13103454;22;20022;-75
2024/03/11 23:54:33;;;;;;;2.22;1.58;;;;;;;;;;13103160;22;20022;-75
2024/03/11 23:59:37;;;;;;;1.70;1.40;;;;;;;;;;13101936;22;20015;-75
